Time;durP1;ratioP1;P1;durP2;ratioP2;P2;SDS_P1;SDS_P2;PMS_P1;PMS_P2;Temp;Humidity;BMP_temperature;BMP_pressure;BME280_temperature;BME280_humidity;BME280_pressure;Samples;Min_cycle;Max_cycle;Signal;HPM_P1;HPM_P2
2022/06/01 00:01:52;;;;;;;8.50;6.28;;;12.70;99.90;;;;;;5055895;28;20074;-70
2022/06/01 00:04:19;;;;;;;10.57;6.43;;;12.70;99.90;;;;;;5055538;28;20468;-70
2022/06/01 00:06:45;;;;;;;8.05;6.45;;;12.80;99.90;;;;;;5073383;28;20059;-70
2022/06/01 00:09:11;;;;;;;8.07;5.90;;;12.80;99.90;;;;;;5072965;28;20471;-70
2022/06/01 00:11:38;;;;;;;7.57;5.90;;;12.70;99.90;;;;;;5055660;28;20049;-70
2022/06/01 00:14:04;;;;;;;8.60;6.28;;;12.80;99.90;;;;;;5055290;28;20131;-72
2022/06/01 00:16:30;;;;;;;9.15;6.43;;;12.80;99.90;;;;;;5055314;28;20045;-70
2022/06/01 00:18:56;;;;;;;8.55;6.43;;;12.70;99.90;;;;;;5073366;28;20049;-70
2022/06/01 00:21:22;;;;;;;8.90;7.07;;;12.70;99.90;;;;;;5055185;28;20041;-70
2022/06/01 00:23:48;;;;;;;9.65;6.78;;;12.80;99.90;;;;;;5055421;28;20098;-70
2022/06/01 00:26:14;;;;;;;8.38;6.57;;;12.80;99.90;;;;;;5073041;28;20092;-70
2022/06/01 00:28:39;;;;;;;10.77;7.10;;;12.90;99.90;;;;;;5073118;28;20070;-70
2022/06/01 00:31:05;;;;;;;8.55;6.85;;;12.90;99.90;;;;;;5073095;28;20131;-70
2022/06/01 00:33:31;;;;;;;8.40;6.60;;;12.90;99.90;;;;;;5055626;28;20044;-70
2022/06/01 00:35:56;;;;;;;9.25;7.07;;;12.90;99.90;;;;;;5054958;28;20036;-70
2022/06/01 00:38:22;;;;;;;9.82;7.38;;;12.90;99.90;;;;;;5055014;28;20087;-70
2022/06/01 00:40:48;;;;;;;9.73;7.55;;;12.80;99.90;;;;;;5072975;28;20052;-70
2022/06/01 00:43:23;;;;;;;10.70;8.07;;;12.90;99.90;;;;;;5072965;28;20049;-70
2022/06/01 00:45:50;;;;;;;10.57;8.13;;;12.80;99.90;;;;;;5074583;28;20037;-70
2022/06/01 00:48:17;;;;;;;12.35;8.88;;;12.80;99.90;;;;;;5059344;28;20048;-70
2022/06/01 00:50:44;;;;;;;11.68;9.43;;;12.90;99.90;;;;;;5059290;28;20051;-70
2022/06/01 00:53:13;;;;;;;12.32;8.43;;;13.00;99.90;;;;;;5076592;28;20056;-70
2022/06/01 00:55:54;;;;;;;10.40;7.65;;;13.10;99.90;;;;;;5058727;28;20044;-70
2022/06/01 00:58:24;;;;;;;13.20;8.57;;;13.10;99.90;;;;;;5076534;28;20049;-70
2022/06/01 01:00:52;;;;;;;12.55;9.98;;;13.10;99.90;;;;;;5076710;28;20374;-70
2022/06/01 01:03:20;;;;;;;9.43;7.88;;;13.10;99.90;;;;;;5076765;28;20055;-70
2022/06/01 01:05:51;;;;;;;11.30;7.97;;;13.00;99.90;;;;;;5076499;28;20090;-70
2022/06/01 01:08:17;;;;;;;12.10;8.15;;;13.00;99.90;;;;;;5058942;28;20080;-70
2022/06/01 01:10:43;;;;;;;12.23;8.10;;;13.00;99.90;;;;;;5058738;28;20441;-70
2022/06/01 01:13:14;;;;;;;10.20;8.07;;;13.00;99.90;;;;;;5076459;28;20052;-70
2022/06/01 01:15:55;;;;;;;13.00;9.52;;;13.00;99.90;;;;;;5058812;28;20095;-70
2022/06/01 01:18:30;;;;;;;11.32;8.55;;;13.00;99.90;;;;;;5076355;28;20134;-70
2022/06/01 01:21:02;;;;;;;9.77;8.63;;;13.00;99.90;;;;;;5076127;28;20131;-70
2022/06/01 01:23:47;;;;;;;14.25;9.15;;;12.90;99.90;;;;;;5058626;28;20051;-70
2022/06/01 01:26:14;;;;;;;11.93;9.07;;;12.90;99.90;;;;;;5058955;28;20058;-70
2022/06/01 01:28:41;;;;;;;12.25;9.32;;;12.90;99.90;;;;;;5058272;28;20449;-70
2022/06/01 01:31:11;;;;;;;10.45;8.48;;;13.00;99.90;;;;;;5058465;28;20539;-71
2022/06/01 01:33:38;;;;;;;12.13;9.88;;;13.00;99.90;;;;;;5058553;28;20048;-70
2022/06/01 01:36:08;;;;;;;12.40;9.88;;;13.00;99.90;;;;;;5058344;28;20389;-70
2022/06/01 01:38:49;;;;;;;12.52;9.80;;;12.90;99.90;;;;;;5075970;28;20051;-70
2022/06/01 01:41:28;;;;;;;13.63;10.65;;;12.90;99.90;;;;;;5057773;28;20132;-70
2022/06/01 01:44:04;;;;;;;13.60;10.70;;;12.90;99.90;;;;;;5057985;28;20044;-70
2022/06/01 01:46:31;;;;;;;13.48;10.65;;;12.90;99.90;;;;;;5076322;28;20054;-70
2022/06/01 01:48:57;;;;;;;13.48;10.60;;;12.90;99.90;;;;;;5075687;28;20047;-70
2022/06/01 01:51:25;;;;;;;16.15;11.85;;;12.90;99.90;;;;;;5075981;28;20396;-70
2022/06/01 01:53:53;;;;;;;13.63;10.35;;;12.90;99.90;;;;;;5075923;28;20493;-70
2022/06/01 01:56:50;;;;;;;14.48;11.10;;;13.00;99.90;;;;;;5074796;28;20049;-70
2022/06/01 01:59:55;;;;;;;13.52;10.85;;;13.00;99.90;;;;;;5058164;28;20450;-70
2022/06/01 02:02:44;;;;;;;14.27;11.48;;;12.90;99.90;;;;;;5075420;28;20131;-70
2022/06/01 02:08:34;;;;;;;15.85;12.10;;;12.80;99.90;;;;;;5075584;28;20538;-70
2022/06/01 02:13:58;;;;;;;16.08;12.98;;;12.80;99.90;;;;;;5075364;28;20110;-71
2022/06/01 02:16:28;;;;;;;15.85;12.63;;;12.90;99.90;;;;;;5057228;28;20053;-70
2022/06/01 02:18:58;;;;;;;13.30;10.85;;;12.80;99.90;;;;;;5075242;28;20048;-70
2022/06/01 02:21:25;;;;;;;15.48;12.23;;;12.90;99.90;;;;;;5057679;28;20131;-70
2022/06/01 02:23:53;;;;;;;16.00;11.90;;;12.90;99.90;;;;;;5075289;28;20397;-70
2022/06/01 02:26:20;;;;;;;17.85;12.75;;;12.90;99.90;;;;;;5057299;28;20588;-70
2022/06/01 02:28:49;;;;;;;15.65;12.05;;;12.90;99.90;;;;;;5057400;28;20045;-70
2022/06/01 02:31:16;;;;;;;14.30;10.90;;;12.90;99.90;;;;;;5075017;28;20049;-71
2022/06/01 02:33:45;;;;;;;15.35;11.93;;;12.90;99.90;;;;;;5075052;28;20408;-70
2022/06/01 02:36:17;;;;;;;15.85;11.48;;;12.80;99.90;;;;;;5074798;28;20056;-70
2022/06/01 02:38:47;;;;;;;15.43;11.82;;;12.80;99.90;;;;;;5074688;28;20048;-70
2022/06/01 02:43:58;;;;;;;15.90;12.32;;;12.80;99.90;;;;;;5074874;28;20413;-70
2022/06/01 02:46:25;;;;;;;18.33;12.88;;;12.80;99.90;;;;;;5056695;28;20063;-72
2022/06/01 02:48:51;;;;;;;16.63;13.45;;;12.80;99.90;;;;;;5074854;28;20044;-70
2022/06/01 02:51:18;;;;;;;16.98;12.10;;;12.80;99.90;;;;;;5074687;28;20092;-70
2022/06/01 02:53:47;;;;;;;15.98;12.45;;;12.80;99.90;;;;;;5056845;28;20044;-70
2022/06/01 02:56:14;;;;;;;15.95;12.77;;;12.80;99.90;;;;;;5056692;28;20049;-70
2022/06/01 02:58:40;;;;;;;17.00;13.30;;;12.80;99.90;;;;;;5056768;28;20062;-70
2022/06/01 03:01:06;;;;;;;16.20;13.27;;;12.80;99.90;;;;;;5056682;28;20489;-70
2022/06/01 03:03:33;;;;;;;17.77;13.15;;;12.80;99.90;;;;;;5074283;28;20074;-70
2022/06/01 03:05:59;;;;;;;19.15;14.07;;;12.80;99.90;;;;;;5056797;28;20485;-70
2022/06/01 03:08:25;;;;;;;16.92;13.57;;;12.80;99.90;;;;;;5073218;28;20048;-70
2022/06/01 03:10:52;;;;;;;17.20;12.98;;;12.70;99.90;;;;;;5073781;28;20080;-70
2022/06/01 03:13:20;;;;;;;16.30;13.38;;;12.70;99.90;;;;;;5056529;28;20048;-70
2022/06/01 03:15:46;;;;;;;17.95;12.50;;;12.80;99.90;;;;;;5073711;28;20044;-70
2022/06/01 03:18:11;;;;;;;17.85;13.15;;;12.80;99.90;;;;;;5074190;28;20052;-70
2022/06/01 03:20:38;;;;;;;19.13;13.80;;;12.80;99.90;;;;;;5039691;28;20044;-70
2022/06/01 03:23:04;;;;;;;14.60;11.98;;;12.80;99.90;;;;;;5073901;28;20056;-70
2022/06/01 03:25:30;;;;;;;23.33;17.67;;;12.80;99.90;;;;;;5073691;28;20048;-70
2022/06/01 03:27:59;;;;;;;16.27;12.95;;;12.90;99.90;;;;;;5056332;28;20036;-70
2022/06/01 03:30:26;;;;;;;17.92;13.95;;;12.90;99.90;;;;;;5073877;28;20052;-70
2022/06/01 03:32:52;;;;;;;17.33;14.10;;;12.90;99.90;;;;;;5073780;28;20080;-70
2022/06/01 03:35:21;;;;;;;16.83;14.63;;;12.90;99.90;;;;;;5056147;28;20051;-70
2022/06/01 03:37:47;;;;;;;24.23;16.33;;;12.90;99.90;;;;;;5073425;28;20507;-70
2022/06/01 03:40:14;;;;;;;20.83;14.70;;;13.00;99.90;;;;;;5073341;28;20044;-70
2022/06/01 03:42:40;;;;;;;17.90;13.60;;;13.00;99.90;;;;;;5055452;28;20056;-70
2022/06/01 03:47:51;;;;;;;20.00;13.68;;;13.00;99.90;;;;;;5056250;28;20056;-70
2022/06/01 03:50:17;;;;;;;17.35;13.70;;;12.90;99.90;;;;;;5039016;28;20048;-70
2022/06/01 03:57:54;;;;;;;19.73;14.15;;;12.90;99.90;;;;;;1242126;26;20061;-71
2022/06/01 04:00:23;;;;;;;19.60;14.15;;;12.90;99.90;;;;;;5014362;28;20072;-70
2022/06/01 04:02:49;;;;;;;17.38;12.65;;;12.90;99.90;;;;;;5013656;28;20050;-70
2022/06/01 04:05:16;;;;;;;20.17;14.30;;;13.00;99.90;;;;;;4996574;28;20053;-70
2022/06/01 04:07:42;;;;;;;22.38;13.38;;;13.00;99.90;;;;;;5013776;28;20473;-70
2022/06/01 04:10:09;;;;;;;15.75;13.93;;;13.00;99.90;;;;;;5013887;28;20053;-70
2022/06/01 04:12:35;;;;;;;17.98;14.98;;;13.00;99.90;;;;;;5013885;28;20044;-70
2022/06/01 04:15:01;;;;;;;15.80;13.35;;;13.00;99.90;;;;;;4996501;28;20088;-70
2022/06/01 04:17:27;;;;;;;15.43;13.13;;;13.00;99.90;;;;;;5013632;28;20053;-70
2022/06/01 04:19:52;;;;;;;17.15;14.18;;;13.10;99.90;;;;;;5015198;28;20049;-70
2022/06/01 04:22:20;;;;;;;17.15;13.50;;;13.10;99.90;;;;;;4999792;28;20050;-70
2022/06/01 04:24:45;;;;;;;16.42;14.43;;;13.10;99.90;;;;;;5017937;28;20038;-70
2022/06/01 04:27:11;;;;;;;18.95;14.07;;;13.10;99.90;;;;;;5000910;28;20658;-70
2022/06/01 04:29:39;;;;;;;19.88;14.07;;;13.20;99.90;;;;;;5017821;28;20046;-70
2022/06/01 04:32:10;;;;;;;21.20;16.67;;;13.30;99.90;;;;;;5017717;28;20050;-70
2022/06/01 04:34:36;;;;;;;20.42;16.15;;;13.20;99.90;;;;;;5000360;28;20504;-70
2022/06/01 04:37:02;;;;;;;18.27;15.98;;;13.20;99.90;;;;;;5000388;28;20093;-70
2022/06/01 04:39:28;;;;;;;18.23;14.75;;;13.20;99.90;;;;;;5017708;28;20093;-71
2022/06/01 04:41:54;;;;;;;18.10;15.02;;;13.20;99.90;;;;;;5000241;28;20042;-70
2022/06/01 04:44:20;;;;;;;17.10;14.52;;;13.30;99.90;;;;;;5000183;28;20076;-70
2022/06/01 04:46:45;;;;;;;16.02;12.82;;;13.20;99.90;;;;;;5017468;28;20140;-70
2022/06/01 04:49:11;;;;;;;17.55;13.70;;;13.30;99.90;;;;;;5017444;28;20470;-70
2022/06/01 04:51:38;;;;;;;19.00;15.18;;;13.30;99.90;;;;;;5000069;28;20057;-70
2022/06/01 04:54:05;;;;;;;20.75;16.77;;;13.30;99.90;;;;;;5017126;28;20129;-70
2022/06/01 04:56:31;;;;;;;20.95;16.48;;;13.40;99.90;;;;;;4999866;28;20056;-70
2022/06/01 04:58:57;;;;;;;21.33;17.08;;;13.40;99.90;;;;;;4999703;28;20042;-70
2022/06/01 05:01:23;;;;;;;23.75;18.58;;;13.40;99.90;;;;;;5017215;28;20054;-70
2022/06/01 05:03:49;;;;;;;22.45;16.58;;;13.50;99.90;;;;;;5017166;28;20053;-70
2022/06/01 05:06:15;;;;;;;22.35;17.85;;;13.50;99.90;;;;;;4999817;28;20474;-71
2022/06/01 05:08:41;;;;;;;23.67;17.65;;;13.60;99.90;;;;;;5000076;28;20471;-70
2022/06/01 05:11:06;;;;;;;21.50;17.33;;;13.50;99.90;;;;;;5017499;28;20060;-70
2022/06/01 05:13:32;;;;;;;19.85;15.88;;;13.50;99.90;;;;;;5016966;28;20550;-70
2022/06/01 05:16:01;;;;;;;20.83;17.02;;;13.50;99.90;;;;;;4999460;28;20502;-70
2022/06/01 05:18:27;;;;;;;19.83;16.13;;;13.50;99.90;;;;;;5016910;28;20046;-70
2022/06/01 05:20:54;;;;;;;22.88;15.98;;;13.50;99.90;;;;;;4999200;28;20089;-70
2022/06/01 05:23:21;;;;;;;21.73;16.75;;;13.50;99.90;;;;;;4999141;28;20064;-70
2022/06/01 05:25:48;;;;;;;25.55;18.60;;;13.50;99.90;;;;;;4999440;28;20140;-70
2022/06/01 05:28:18;;;;;;;24.13;19.27;;;13.50;99.90;;;;;;5016691;28;20037;-70
2022/06/01 05:30:44;;;;;;;22.88;16.80;;;13.70;99.90;;;;;;4998976;28;20061;-70
2022/06/01 05:33:10;;;;;;;23.05;19.52;;;13.90;99.90;;;;;;5016259;28;20046;-70
2022/06/01 05:35:36;;;;;;;23.67;18.27;;;14.00;99.90;;;;;;4999101;28;20053;-70
2022/06/01 05:38:02;;;;;;;19.13;16.27;;;14.00;99.90;;;;;;5016576;28;20050;-70
2022/06/01 05:40:30;;;;;;;24.30;19.35;;;14.00;99.90;;;;;;5016471;28;20096;-70
2022/06/01 05:42:57;;;;;;;23.45;17.77;;;14.00;99.90;;;;;;5015237;28;20129;-70
2022/06/01 05:45:23;;;;;;;23.92;18.83;;;14.10;99.90;;;;;;5016653;28;20046;-70
2022/06/01 05:47:49;;;;;;;24.80;18.48;;;14.20;99.90;;;;;;5016035;28;20504;-70
2022/06/01 05:50:15;;;;;;;27.98;20.38;;;14.10;99.90;;;;;;5015096;28;20050;-70
2022/06/01 05:52:41;;;;;;;25.38;18.42;;;14.10;99.90;;;;;;4998538;28;20478;-70
2022/06/01 05:55:09;;;;;;;20.52;16.98;;;14.10;99.90;;;;;;4998955;28;20046;-70
2022/06/01 05:57:35;;;;;;;21.33;17.20;;;14.20;99.90;;;;;;4998688;28;20054;-70
2022/06/01 06:00:04;;;;;;;22.58;17.77;;;14.20;99.90;;;;;;4998747;28;20108;-70
2022/06/01 06:02:30;;;;;;;20.40;17.08;;;14.30;99.90;;;;;;5016111;28;20053;-70
2022/06/01 06:04:55;;;;;;;23.80;18.27;;;14.30;99.90;;;;;;4998704;28;20049;-70
2022/06/01 06:07:21;;;;;;;24.83;18.38;;;14.30;99.90;;;;;;4998626;28;20046;-70
2022/06/01 06:09:46;;;;;;;21.33;17.80;;;14.30;99.90;;;;;;4998668;28;20045;-70
2022/06/01 06:12:12;;;;;;;23.83;19.35;;;14.30;99.90;;;;;;4998362;28;20053;-70
2022/06/01 06:14:38;;;;;;;25.75;19.42;;;14.40;99.90;;;;;;4998194;28;20038;-70
2022/06/01 06:17:04;;;;;;;24.00;19.25;;;14.30;99.90;;;;;;5015864;28;20045;-70
2022/06/01 06:19:29;;;;;;;28.15;20.75;;;14.30;99.90;;;;;;5015719;28;20501;-70
2022/06/01 06:21:55;;;;;;;25.20;20.25;;;14.30;99.90;;;;;;5015277;28;20415;-71
2022/06/01 06:24:22;;;;;;;28.30;23.08;;;14.40;99.90;;;;;;5015575;28;20049;-70
2022/06/01 06:26:48;;;;;;;24.92;18.75;;;14.50;99.90;;;;;;5014094;28;20042;-70
2022/06/01 06:29:17;;;;;;;27.00;20.10;;;14.50;99.90;;;;;;4998297;28;20141;-70
2022/06/01 06:31:43;;;;;;;24.17;18.05;;;14.60;99.90;;;;;;4998300;28;20394;-70
2022/06/01 06:34:09;;;;;;;19.88;15.45;;;14.80;99.90;;;;;;5015449;28;20049;-70
2022/06/01 06:36:35;;;;;;;18.65;13.90;;;14.70;99.90;;;;;;5015303;28;20044;-70
2022/06/01 06:39:01;;;;;;;15.65;12.32;;;14.70;99.90;;;;;;4998143;28;20120;-70
2022/06/01 06:41:27;;;;;;;14.93;11.60;;;14.80;99.90;;;;;;4997989;28;20435;-70
2022/06/01 06:43:53;;;;;;;13.05;10.43;;;14.80;99.90;;;;;;4997927;28;20050;-70
2022/06/01 06:46:22;;;;;;;14.00;11.15;;;14.90;99.90;;;;;;5014043;28;20037;-70
2022/06/01 06:48:49;;;;;;;14.52;10.85;;;15.10;99.90;;;;;;4997973;28;20383;-70
2022/06/01 06:51:16;;;;;;;15.38;11.40;;;15.10;99.90;;;;;;5014366;28;20060;-71
2022/06/01 06:53:42;;;;;;;14.77;10.98;;;14.90;99.90;;;;;;5014788;28;20093;-70
2022/06/01 06:56:08;;;;;;;12.90;10.23;;;14.60;99.90;;;;;;4997527;28;20077;-70
2022/06/01 06:58:35;;;;;;;15.88;12.38;;;14.60;99.90;;;;;;5014640;28;20065;-70
2022/06/01 07:01:01;;;;;;;13.45;11.15;;;14.60;99.90;;;;;;5014974;28;20054;-70
2022/06/01 07:03:27;;;;;;;16.17;10.95;;;14.40;99.90;;;;;;4997747;28;20057;-70
2022/06/01 07:06:09;;;;;;;6.25;5.50;;;14.30;99.90;;;;;;4997723;28;20077;-70
2022/06/01 07:08:39;;;;;;;5.78;4.47;;;14.10;99.90;;;;;;4997941;28;20490;-70
2022/06/01 07:11:05;;;;;;;8.38;4.82;;;14.00;99.90;;;;;;4997195;28;20096;-70
2022/06/01 07:13:32;;;;;;;5.53;3.55;;;13.90;99.90;;;;;;5014684;28;20108;-71
2022/06/01 07:16:06;;;;;;;6.75;3.30;;;13.90;99.90;;;;;;5014654;28;20049;-70
2022/06/01 07:18:32;;;;;;;4.22;3.08;;;13.90;99.90;;;;;;4997347;28;20141;-70
2022/06/01 07:20:58;;;;;;;9.27;3.55;;;13.90;99.90;;;;;;5014572;28;20124;-71
2022/06/01 07:23:25;;;;;;;4.78;3.25;;;13.80;99.90;;;;;;5014209;28;20045;-70
2022/06/01 07:25:52;;;;;;;6.43;3.92;;;13.90;99.90;;;;;;5014496;28;20449;-71
2022/06/01 07:28:21;;;;;;;8.30;5.03;;;14.00;99.90;;;;;;5014331;28;20111;-70
2022/06/01 07:30:49;;;;;;;7.53;5.55;;;14.00;99.90;;;;;;5014387;28;20053;-70
2022/06/01 07:33:15;;;;;;;7.60;5.57;;;14.00;99.90;;;;;;5015233;28;20041;-72
2022/06/01 07:35:40;;;;;;;6.85;4.93;;;14.00;99.90;;;;;;4996931;28;20053;-69
2022/06/01 07:43:39;;;;;;;4.53;3.88;;;14.00;99.90;;;;;;4996990;28;20464;-69
2022/06/01 07:46:05;;;;;;;3.00;2.67;;;14.20;99.90;;;;;;4996830;28;20123;-69
2022/06/01 07:48:31;;;;;;;4.53;3.70;;;14.40;99.90;;;;;;4996715;28;20053;-69
2022/06/01 07:50:56;;;;;;;3.42;2.58;;;14.60;99.90;;;;;;5014211;28;20049;-69
2022/06/01 07:53:22;;;;;;;4.40;2.88;;;14.70;99.90;;;;;;5013941;28;20108;-76
2022/06/01 07:55:48;;;;;;;4.82;4.32;;;14.80;99.90;;;;;;4997920;28;20104;-74
2022/06/01 07:58:13;;;;;;;6.15;4.88;;;14.90;99.90;;;;;;4999029;28;20140;-72
2022/06/01 08:00:39;;;;;;;7.88;6.15;;;15.10;99.90;;;;;;4996794;28;20050;-72
2022/06/01 08:03:13;;;;;;;8.05;6.15;;;15.30;99.90;;;;;;5013915;28;20045;-72
2022/06/01 08:05:39;;;;;;;6.63;5.30;;;15.30;99.90;;;;;;4996589;28;20081;-72
2022/06/01 08:08:04;;;;;;;5.78;4.97;;;15.40;99.90;;;;;;5013973;28;20462;-72
2022/06/01 08:10:30;;;;;;;7.85;4.80;;;15.40;99.90;;;;;;5013123;28;20050;-72
2022/06/01 08:13:08;;;;;;;7.50;5.10;;;15.40;99.90;;;;;;5013904;28;20046;-72
2022/06/01 08:15:48;;;;;;;5.28;4.28;;;15.40;99.90;;;;;;5013840;28;20041;-72
2022/06/01 08:18:17;;;;;;;5.20;3.22;;;15.40;99.90;;;;;;5013969;28;20057;-73
2022/06/01 08:20:43;;;;;;;4.47;3.42;;;15.50;99.90;;;;;;5014018;28;20549;-73
2022/06/01 08:23:10;;;;;;;3.92;3.30;;;15.50;99.90;;;;;;5013396;28;20180;-72
2022/06/01 08:25:36;;;;;;;5.88;4.13;;;15.60;99.90;;;;;;4996485;28;20057;-72
2022/06/01 08:28:04;;;;;;;7.28;4.38;;;15.70;99.90;;;;;;4996429;28;20042;-73
2022/06/01 08:30:31;;;;;;;8.30;6.13;;;15.80;99.90;;;;;;5013663;28;20513;-73
2022/06/01 08:32:57;;;;;;;9.38;6.60;;;15.80;99.90;;;;;;4996385;28;20214;-73
2022/06/01 08:35:30;;;;;;;14.60;8.38;;;15.70;99.90;;;;;;5012672;28;20042;-73
2022/06/01 08:37:57;;;;;;;13.07;10.07;;;16.00;99.90;;;;;;5013642;28;20077;-72
2022/06/01 08:40:58;;;;;;;13.55;9.35;;;16.20;99.90;;;;;;5013499;28;20045;-73
2022/06/01 08:43:28;;;;;;;11.13;9.23;;;16.30;99.90;;;;;;5003011;28;20054;-73
2022/06/01 08:45:58;;;;;;;11.15;9.73;;;16.10;99.90;;;;;;4996273;28;20394;-73
2022/06/01 08:48:48;;;;;;;14.38;9.82;;;16.10;99.90;;;;;;4996187;28;20046;-73
2022/06/01 08:51:16;;;;;;;13.98;9.38;;;16.20;99.90;;;;;;4996234;28;20050;-72
2022/06/01 08:53:42;;;;;;;13.48;9.23;;;15.80;99.90;;;;;;4995641;28;20049;-73
2022/06/01 08:56:13;;;;;;;12.73;9.48;;;15.80;99.90;;;;;;5012420;28;20053;-73
2022/06/01 08:59:29;;;;;;;13.20;9.45;;;15.80;99.90;;;;;;4992457;28;20062;-72
2022/06/01 09:02:28;;;;;;;11.55;9.80;;;15.80;99.90;;;;;;4960630;28;20053;-72
2022/06/01 09:05:11;;;;;;;13.30;10.45;;;15.70;99.90;;;;;;4992949;28;20137;-72
2022/06/01 09:07:55;;;;;;;10.93;9.05;;;15.60;99.90;;;;;;4996300;28;20050;-72
2022/06/01 09:10:43;;;;;;;17.17;9.60;;;15.60;99.90;;;;;;4997559;28;20126;-75
2022/06/01 09:13:23;;;;;;;13.90;8.93;;;16.00;99.90;;;;;;4997419;28;20049;-72
2022/06/01 09:16:35;;;;;;;9.65;8.65;;;16.20;99.90;;;;;;4996536;28;20509;-72
2022/06/01 09:19:01;;;;;;;11.45;7.45;;;16.30;99.90;;;;;;4993237;28;20061;-72
2022/06/01 09:24:33;;;;;;;8.98;6.60;;;16.70;99.90;;;;;;4996858;28;20065;-71
2022/06/01 09:27:02;;;;;;;5.75;5.15;;;17.10;99.90;;;;;;4997367;28;20097;-74
2022/06/01 09:29:50;;;;;;;8.13;5.75;;;17.30;99.90;;;;;;4997086;28;20109;-71
2022/06/01 09:32:25;;;;;;;9.45;6.47;;;17.20;99.90;;;;;;4979606;28;20069;-73
2022/06/01 09:34:51;;;;;;;9.52;5.97;;;17.20;99.90;;;;;;4997005;28;20050;-72
2022/06/01 09:37:31;;;;;;;7.30;5.70;;;17.00;99.90;;;;;;4996950;28;20049;-76
2022/06/01 09:40:01;;;;;;;6.43;5.38;;;16.90;99.90;;;;;;4997479;28;20450;-72
2022/06/01 09:42:41;;;;;;;6.35;5.35;;;16.80;99.90;;;;;;4997140;28;20061;-73
2022/06/01 09:45:32;;;;;;;9.07;7.10;;;16.70;99.90;;;;;;4996950;28;20042;-73
2022/06/01 09:48:23;;;;;;;8.77;6.63;;;16.40;99.90;;;;;;4995993;28;20491;-72
2022/06/01 09:50:58;;;;;;;8.90;6.07;;;16.50;99.90;;;;;;4995764;28;20069;-72
2022/06/01 09:53:32;;;;;;;7.28;6.30;;;16.70;99.90;;;;;;4995261;28;20085;-72
2022/06/01 09:56:03;;;;;;;6.57;5.43;;;16.60;99.90;;;;;;4996239;28;20486;-72
2022/06/01 10:07:02;;;;;;;3.53;2.72;;;16.10;99.90;;;;;;4994871;28;20133;-72
2022/06/01 10:09:33;;;;;;;4.15;2.50;;;16.10;99.90;;;;;;4994743;28;20050;-72
2022/06/01 10:12:14;;;;;;;4.00;2.58;;;16.10;99.90;;;;;;4996111;28;20066;-71
2022/06/01 10:14:48;;;;;;;2.85;2.10;;;16.50;99.90;;;;;;4996317;28;20113;-71
2022/06/01 10:17:21;;;;;;;2.58;2.00;;;16.70;99.90;;;;;;4994831;28;20058;-72
2022/06/01 10:20:11;;;;;;;2.72;2.00;;;17.00;99.90;;;;;;4978872;28;20108;-72
2022/06/01 10:22:56;;;;;;;4.15;2.30;;;17.00;99.90;;;;;;4994648;28;20050;-72
2022/06/01 10:25:33;;;;;;;5.50;2.78;;;17.10;99.90;;;;;;4997513;28;20136;-89
2022/06/01 10:28:08;;;;;;;4.25;2.95;;;17.10;99.90;;;;;;4997588;28;20101;-75
2022/06/01 10:30:38;;;;;;;5.03;3.20;;;17.00;99.90;;;;;;4994974;28;20050;-76
2022/06/01 10:33:23;;;;;;;5.38;3.03;;;17.60;99.90;;;;;;4978576;28;20042;-73
2022/06/01 10:36:02;;;;;;;7.70;3.22;;;17.50;99.90;;;;;;4994545;28;20043;-74
2022/06/01 10:38:32;;;;;;;6.97;3.15;;;17.50;99.90;;;;;;4995592;28;20050;-73
2022/06/01 10:41:05;;;;;;;4.43;3.40;;;17.30;99.90;;;;;;4994772;28;20104;-73
2022/06/01 10:44:02;;;;;;;5.28;4.45;;;17.30;99.90;;;;;;4995563;28;20046;-73
2022/06/01 10:46:49;;;;;;;6.22;4.88;;;17.10;99.90;;;;;;4995593;28;20046;-73
2022/06/01 10:49:39;;;;;;;10.85;4.80;;;16.70;99.90;;;;;;4995317;28;20553;-72
2022/06/01 10:52:07;;;;;;;6.53;3.97;;;16.60;99.90;;;;;;4995505;28;20054;-72
2022/06/01 10:54:46;;;;;;;5.30;3.85;;;16.60;99.90;;;;;;4994135;28;20054;-72
2022/06/01 10:57:18;;;;;;;4.70;2.97;;;16.80;99.90;;;;;;4995336;28;20050;-72
2022/06/01 10:59:45;;;;;;;3.13;2.63;;;17.10;99.90;;;;;;5013152;28;20100;-72
2022/06/01 11:02:21;;;;;;;3.35;2.50;;;17.00;99.90;;;;;;5014884;28;20054;-72
2022/06/01 11:04:59;;;;;;;3.75;2.72;;;17.00;99.90;;;;;;5014824;28;20053;-71
2022/06/01 11:08:00;;;;;;;3.25;2.88;;;16.90;99.90;;;;;;5014664;28;20136;-72
2022/06/01 11:10:54;;;;;;;2.90;2.38;;;16.80;99.90;;;;;;5014679;28;20107;-71
2022/06/01 11:13:29;;;;;;;2.72;2.03;;;17.00;99.90;;;;;;5014612;28;20053;-72
2022/06/01 11:16:31;;;;;;;2.67;2.17;;;17.10;99.90;;;;;;5014504;28;20050;-71
2022/06/01 11:19:18;;;;;;;3.50;2.55;;;16.90;99.90;;;;;;5014496;28;20049;-71
2022/06/01 11:21:44;;;;;;;2.95;2.10;;;16.60;99.90;;;;;;4980915;28;20502;-74
2022/06/01 11:24:31;;;;;;;3.17;2.10;;;16.30;99.90;;;;;;5013965;28;20131;-71
2022/06/01 11:27:08;;;;;;;3.65;2.13;;;16.20;99.90;;;;;;5014420;28;20201;-72
2022/06/01 11:29:58;;;;;;;3.10;1.90;;;16.10;99.90;;;;;;5013746;28;20093;-72
2022/06/01 11:32:38;;;;;;;2.17;1.95;;;16.10;99.90;;;;;;4980751;28;20097;-72
2022/06/01 11:35:39;;;;;;;3.03;2.53;;;16.10;99.90;;;;;;5014226;28;20086;-72
2022/06/01 11:38:12;;;;;;;3.92;2.67;;;16.10;99.90;;;;;;4966764;28;20053;-72
2022/06/01 11:41:17;;;;;;;2.42;2.20;;;16.10;99.90;;;;;;5014083;28;20056;-72
2022/06/01 11:44:13;;;;;;;3.58;1.60;;;16.40;99.90;;;;;;4942785;28;20069;-89
2022/06/01 11:46:56;;;;;;;3.33;1.90;;;15.40;99.90;;;;;;4979115;28;20065;-72
2022/06/01 11:49:42;;;;;;;2.53;1.70;;;15.40;99.90;;;;;;5013885;28;20114;-72
2022/06/01 11:52:23;;;;;;;2.80;1.80;;;15.70;99.90;;;;;;5014070;28;20148;-75
2022/06/01 11:55:11;;;;;;;2.28;1.52;;;15.90;99.90;;;;;;4996521;28;20092;-72
2022/06/01 11:57:53;;;;;;;3.20;1.80;;;16.00;99.90;;;;;;5013632;28;20563;-72
2022/06/01 12:00:34;;;;;;;2.85;1.95;;;16.20;99.90;;;;;;5013984;28;20072;-72
2022/06/01 12:03:19;;;;;;;3.47;1.92;;;16.10;99.90;;;;;;5013837;28;20060;-72
2022/06/01 12:06:08;;;;;;;3.15;1.92;;;16.20;99.90;;;;;;5013720;28;20100;-72
2022/06/01 12:09:03;;;;;;;3.03;2.00;;;16.40;99.90;;;;;;4976617;28;20054;-72
2022/06/01 12:11:47;;;;;;;2.33;1.95;;;16.70;99.90;;;;;;4997049;28;20057;-72
2022/06/01 12:14:32;;;;;;;2.63;1.55;;;16.90;99.90;;;;;;5013674;28;20045;-71
2022/06/01 12:17:26;;;;;;;2.40;1.90;;;17.20;99.90;;;;;;4996100;28;20038;-73
2022/06/01 12:20:11;;;;;;;2.40;1.80;;;17.30;99.90;;;;;;5010539;28;20146;-73
2022/06/01 12:29:09;;;;;;;1.92;1.70;;;17.80;99.90;;;;;;5013652;28;20407;-71
2022/06/01 12:31:55;;;;;;;1.85;1.58;;;17.80;99.90;;;;;;5013592;28;20042;-72
2022/06/01 12:34:35;;;;;;;4.00;2.28;;;17.90;99.90;;;;;;5013541;28;20085;-71
2022/06/01 12:37:20;;;;;;;2.72;2.40;;;17.80;99.90;;;;;;4995984;28;20042;-72
2022/06/01 12:39:57;;;;;;;3.38;2.20;;;17.80;99.90;;;;;;4996181;28;20060;-72
2022/06/01 12:42:34;;;;;;;3.00;2.70;;;18.00;99.90;;;;;;5017466;28;20052;-72
2022/06/01 12:45:03;;;;;;;3.97;2.50;;;17.80;99.90;;;;;;5017444;28;20506;-72
2022/06/01 12:47:36;;;;;;;3.60;3.00;;;17.60;99.90;;;;;;5016588;28;20046;-72
2022/06/01 12:50:11;;;;;;;3.75;2.78;;;17.30;99.90;;;;;;5017441;28;20125;-72
2022/06/01 12:52:37;;;;;;;3.55;2.17;;;17.30;99.90;;;;;;5016929;28;20042;-71
2022/06/01 12:55:07;;;;;;;3.60;2.78;;;17.20;99.90;;;;;;5017037;28;20133;-72
2022/06/01 12:57:47;;;;;;;2.80;2.50;;;17.10;99.90;;;;;;5016811;28;20062;-72
2022/06/01 13:00:18;;;;;;;1.85;1.40;;;16.90;99.90;;;;;;5017194;28;20465;-72
2022/06/01 13:02:45;;;;;;;1.80;0.90;;;16.50;99.90;;;;;;5015883;28;20053;-72
2022/06/01 13:05:18;;;;;;;3.10;1.20;;;15.70;99.90;;;;;;5015558;28;20050;-72
2022/06/01 13:07:48;;;;;;;4.28;1.67;;;15.30;99.90;;;;;;5016866;28;20465;-71
2022/06/01 13:10:23;;;;;;;2.25;1.40;;;15.30;99.90;;;;;;5017023;28;20053;-71
2022/06/01 13:12:49;;;;;;;3.28;1.30;;;15.30;99.90;;;;;;4999306;28;20054;-72
2022/06/01 13:15:21;;;;;;;2.38;1.42;;;15.50;99.90;;;;;;5016967;28;20053;-71
2022/06/01 13:17:57;;;;;;;5.82;1.20;;;15.80;99.90;;;;;;5015689;28;20062;-71
2022/06/01 13:20:45;;;;;;;1.80;1.30;;;15.90;99.90;;;;;;5016802;28;20054;-71
2022/06/01 13:23:29;;;;;;;3.53;1.58;;;16.10;99.90;;;;;;5016224;28;20556;-71
2022/06/01 13:26:00;;;;;;;4.22;1.85;;;16.00;99.90;;;;;;5016777;28;20096;-71
2022/06/01 13:28:26;;;;;;;2.88;1.40;;;15.90;99.90;;;;;;5016335;28;20457;-71
2022/06/01 13:30:52;;;;;;;3.83;2.42;;;15.90;99.90;;;;;;4999045;28;20046;-71
2022/06/01 13:33:23;;;;;;;1.67;1.30;;;15.80;99.90;;;;;;4999137;28;20077;-71
2022/06/01 13:36:00;;;;;;;2.35;1.60;;;15.80;99.90;;;;;;5016367;28;20048;-71
2022/06/01 13:38:49;;;;;;;2.10;1.73;;;15.80;99.90;;;;;;4999116;28;20509;-74
2022/06/01 13:41:37;;;;;;;2.80;1.58;;;15.80;99.90;;;;;;5016351;28;20092;-75
2022/06/01 13:44:09;;;;;;;4.30;2.03;;;15.90;99.90;;;;;;4998935;28;20054;-73